Esbjerg, Denmark

11:49 PM CEST am 28. April 2017 (GMT +0200)
Bag Møllen | | Change Station

Höhe 55 ft 55.47 °N, 8.47 °E | Updated 8 minutes ago

Teils Wolkig
Teils Wolkig
43.7 °F
gefühlte 44 °F
N
1.9
Wind Wechselnd Wind aus West-Nordwest
Gusts 3.1 mph

Heute
Max. -- | schwach -- °F
--% Regenrisiko
Gestern
Max. -- | schwach -- °F
Precip. -- inch
Druck 29.89 inch
Sichtweite 6.2 Meilen
Wolken Few 2500 ft
Teils Wolkig 4500 ft
Windchill 44 °F
Taupunkt 35 °F
Feuchtigkeit 70%
Regen 0.01 inch
Schneehöhe Nicht verfügbar..
5:50 AM 8:57 PM
Erstes Viertel, 9% visible
METAR EKSP 282120Z 21003KT 9999 FEW025 SCT045 01/00 Q1012
Druck 29.89 inch
Sichtweite 6.2 Meilen
Wolken Few 2500 ft
Teils Wolkig 4500 ft
Windchill 44 °F
Taupunkt 35 °F
Feuchtigkeit 70%
Regen 0.01 inch
Schneehöhe Nicht verfügbar..
5:50 AM 8:57 PM
Erstes Viertel, 9% visible
METAR EKSP 282120Z 21003KT 9999 FEW025 SCT045 01/00 Q1012

Get Severe Weather Alerts

Thanks for signing up!

Be on the lookout for a verification email in your inbox.

You'll start receiving the daily forecast at 8 AM.

×

10-Day Weather Forecast

×

Almanac

Astronomie

Apr. 28, 2017 Aufgang Untergang
Genaue Zeit
Bürgerliche Dämmerung
Nautische Dämmerung
Astronomische Dämmerung
Mond
Länge des sichtbaren Lichts
Tageslänge
Tomorrow will be .
, % of the Moon is Illuminated

Heutige Rekorde

Country Highs Country Lows

Community

WunderPhotos

WunderBlog® & News

Nearby

Luftqualität

  Luftqualität LQ Index Schadstoff
Not available.

Schneehöhe

Station Depth Höhe

Erdbebenaktivität

Stadt Distance Mag. Time & Date
Minimum magnitude displayed is 2.5.

küstennahe Wassertemperaturen

Ort Temperatur

Stations

Wetterstationen in der Umgebung

Stationsstandort Temp. Windchill Taupunkt Feuchtigkeit Wind Precip. Höhe Aktualisiert Art